Time;durP1;ratioP1;P1;durP2;ratioP2;P2;SDS_P1;SDS_P2;PMS_P1;PMS_P2;Temp;Humidity;BMP_temperature;BMP_pressure;BME280_temperature;BME280_humidity;BME280_pressure;Samples;Min_cycle;Max_cycle;Signal;HPM_P1;HPM_P2
2023/10/10 00:00:55;;;;;;;11.70;7.03;;;14.90;99.90;;;;;;4996948;28;20064;-79
2023/10/10 00:03:27;;;;;;;13.38;7.22;;;14.90;99.90;;;;;;4997869;28;20044;-79
2023/10/10 00:05:55;;;;;;;15.48;7.03;;;14.90;99.90;;;;;;5014037;28;20049;-79
2023/10/10 00:08:27;;;;;;;19.65;7.10;;;14.90;99.90;;;;;;5012776;28;20440;-79
2023/10/10 00:10:54;;;;;;;;;;;14.90;99.90;;;;;;4996521;28;20037;-79
2023/10/10 00:13:20;;;;;;;13.38;7.18;;;14.90;99.90;;;;;;5012012;28;19924;-79
2023/10/10 00:16:05;;;;;;;12.40;7.25;;;14.90;99.90;;;;;;4996350;28;20493;-79
2023/10/10 00:18:32;;;;;;;14.45;7.50;;;14.90;99.90;;;;;;4982375;28;20045;-79
2023/10/10 00:21:06;;;;;;;14.70;7.85;;;14.90;99.90;;;;;;5012862;28;20038;-80
2023/10/10 00:23:47;;;;;;;14.50;7.22;;;14.90;99.90;;;;;;4980770;28;20400;-79
2023/10/10 00:26:23;;;;;;;17.77;7.57;;;14.90;99.90;;;;;;5012554;28;20078;-79
2023/10/10 00:28:55;;;;;;;14.07;8.43;;;14.90;99.90;;;;;;5012646;28;20119;-79
2023/10/10 00:31:22;;;;;;;11.90;7.97;;;14.90;99.90;;;;;;4996230;28;20073;-79
2023/10/10 00:33:53;;;;;;;12.43;8.35;;;14.90;99.90;;;;;;4996207;28;20441;-78
2023/10/10 00:36:30;;;;;;;15.40;9.05;;;14.90;99.90;;;;;;5012639;28;20497;-80
2023/10/10 00:39:39;;;;;;;17.98;8.98;;;14.90;99.90;;;;;;5012623;28;20048;-80
2023/10/10 00:44:17;;;;;;;15.85;9.02;;;14.90;99.90;;;;;;4999208;28;20045;-80
2023/10/10 00:46:47;;;;;;;15.43;9.18;;;15.00;99.90;;;;;;5012099;28;20128;-80
2023/10/10 00:49:14;;;;;;;15.48;9.13;;;15.00;99.90;;;;;;5012114;28;20042;-80
2023/10/10 00:51:46;;;;;;;13.65;9.55;;;14.90;99.90;;;;;;5011933;28;20568;-80
2023/10/10 00:54:26;;;;;;;;;;;14.90;99.90;;;;;;5012675;28;20120;-80
2023/10/10 00:56:56;;;;;;;16.88;10.15;;;14.90;99.90;;;;;;5012985;28;19940;-80
2023/10/10 00:59:34;;;;;;;17.25;11.35;;;14.90;99.90;;;;;;5012105;28;20038;-80
2023/10/10 01:02:04;;;;;;;20.77;10.55;;;14.90;99.90;;;;;;4994995;28;20111;-80
2023/10/10 01:07:20;;;;;;;21.90;12.75;;;15.00;99.90;;;;;;4998057;28;20081;-80
2023/10/10 01:09:57;;;;;;;21.95;12.57;;;14.90;99.90;;;;;;4995763;28;20048;-80
2023/10/10 01:12:28;;;;;;;23.17;13.50;;;15.00;99.90;;;;;;5011840;28;20095;-79
2023/10/10 01:14:55;;;;;;;18.13;13.50;;;15.00;99.90;;;;;;5011411;28;20041;-80
2023/10/10 01:17:32;;;;;;;23.00;13.38;;;14.90;99.90;;;;;;4992143;28;20038;-80
2023/10/10 01:20:14;;;;;;;25.80;14.07;;;15.00;99.90;;;;;;5008395;28;20053;-80
2023/10/10 01:22:40;;;;;;;18.13;13.33;;;15.00;99.90;;;;;;4981506;28;20038;-80
2023/10/10 01:25:31;;;;;;;20.85;14.13;;;15.00;99.90;;;;;;5012924;28;20137;-80
2023/10/10 01:27:55;;;;;;;20.30;13.80;;;15.00;99.90;;;;;;4997734;28;20064;-80
2023/10/10 01:30:43;;;;;;;21.40;14.13;;;15.00;99.90;;;;;;5010422;28;20500;-80
2023/10/10 01:33:07;;;;;;;16.55;12.52;;;15.00;99.90;;;;;;5010433;28;20061;-81
2023/10/10 01:35:34;;;;;;;18.23;13.80;;;15.00;99.90;;;;;;4979076;28;20041;-80
2023/10/10 01:37:59;;;;;;;19.05;14.05;;;15.00;99.90;;;;;;4994383;28;20080;-81
2023/10/10 01:40:28;;;;;;;20.17;14.18;;;15.00;99.90;;;;;;4978677;28;20073;-80
2023/10/10 01:42:54;;;;;;;21.05;13.80;;;15.00;99.90;;;;;;4995250;28;20124;-80
2023/10/10 01:45:27;;;;;;;21.33;14.07;;;15.00;99.90;;;;;;5011442;28;20134;-80
2023/10/10 01:48:02;;;;;;;21.25;13.27;;;15.00;99.90;;;;;;4995227;28;20489;-80
2023/10/10 01:50:31;;;;;;;17.45;13.25;;;15.10;99.90;;;;;;5011346;28;20050;-80
2023/10/10 01:52:57;;;;;;;21.10;13.50;;;15.00;99.90;;;;;;5011255;28;20069;-80
2023/10/10 01:55:24;;;;;;;20.23;14.07;;;15.00;99.90;;;;;;4978717;28;20484;-80
2023/10/10 01:58:01;;;;;;;19.52;13.35;;;15.00;99.90;;;;;;5010973;28;20509;-80
2023/10/10 02:00:27;;;;;;;20.42;13.48;;;15.00;99.90;;;;;;5011073;28;20046;-80
2023/10/10 02:02:55;;;;;;;20.02;12.90;;;15.00;99.90;;;;;;4994483;28;20124;-80
2023/10/10 02:08:09;;;;;;;18.27;12.25;;;15.00;99.90;;;;;;5011152;28;20521;-80
2023/10/10 02:10:36;;;;;;;19.50;13.35;;;15.00;99.90;;;;;;5010725;28;20042;-80
2023/10/10 02:13:05;;;;;;;16.05;11.93;;;15.00;99.90;;;;;;5010961;28;20400;-79
2023/10/10 02:15:36;;;;;;;14.98;10.93;;;15.00;99.90;;;;;;4978514;28;20037;-79
2023/10/10 02:18:04;;;;;;;16.20;10.82;;;15.10;99.90;;;;;;4994678;28;20405;-79
2023/10/10 02:20:49;;;;;;;18.60;10.80;;;15.10;99.90;;;;;;5011260;28;20046;-79
2023/10/10 02:23:24;;;;;;;17.02;11.10;;;15.10;99.90;;;;;;4996798;28;20042;-79
2023/10/10 02:25:53;;;;;;;15.02;9.93;;;15.10;99.90;;;;;;4994514;28;20080;-78
2023/10/10 02:30:48;;;;;;;13.07;9.48;;;15.10;99.90;;;;;;5011069;28;20038;-80
2023/10/10 02:35:56;;;;;;;15.77;10.53;;;15.10;99.90;;;;;;5013010;28;20042;-79
2023/10/10 02:38:32;;;;;;;13.52;8.90;;;15.10;99.90;;;;;;5014747;28;20046;-79
2023/10/10 02:44:02;;;;;;;20.17;10.30;;;15.10;99.90;;;;;;4986716;28;20046;-79
2023/10/10 02:46:35;;;;;;;15.23;8.95;;;15.10;99.90;;;;;;5014632;28;20050;-79
2023/10/10 02:49:09;;;;;;;12.20;8.75;;;15.10;99.90;;;;;;4998057;28;20120;-79
2023/10/10 02:51:40;;;;;;;18.05;8.77;;;15.10;99.90;;;;;;5015471;28;20076;-79
2023/10/10 02:54:20;;;;;;;15.02;9.30;;;15.10;99.90;;;;;;5012673;28;20097;-79
2023/10/10 02:56:48;;;;;;;17.70;9.52;;;15.10;99.90;;;;;;5014049;28;20034;-79
2023/10/10 02:59:23;;;;;;;14.50;9.68;;;15.10;99.90;;;;;;4998279;28;20038;-79
2023/10/10 03:01:56;;;;;;;17.98;9.68;;;15.10;99.90;;;;;;4998827;28;20515;-81
2023/10/10 03:04:23;;;;;;;16.75;9.80;;;15.10;99.90;;;;;;4998547;28;20517;-79
2023/10/10 03:06:49;;;;;;;15.25;9.93;;;15.10;99.90;;;;;;5014209;28;20045;-80
2023/10/10 03:09:38;;;;;;;14.20;9.50;;;15.10;99.90;;;;;;4997691;28;20041;-77
2023/10/10 03:12:06;;;;;;;14.93;10.10;;;15.10;99.90;;;;;;5015209;28;20041;-78
2023/10/10 03:14:34;;;;;;;13.63;9.95;;;15.10;99.90;;;;;;5013911;28;20034;-78
2023/10/10 03:17:06;;;;;;;14.57;9.60;;;15.10;99.90;;;;;;5015211;28;20056;-78
2023/10/10 03:19:38;;;;;;;13.63;9.85;;;15.10;99.90;;;;;;4983187;28;20104;-78
2023/10/10 03:25:28;;;;;;;17.20;10.32;;;15.00;99.90;;;;;;4938324;29;20106;-78
2023/10/10 03:28:05;;;;;;;18.65;10.25;;;15.10;99.90;;;;;;4995938;28;20046;-78
2023/10/10 03:30:49;;;;;;;15.20;9.60;;;15.00;99.90;;;;;;4982842;28;20033;-78
2023/10/10 03:33:29;;;;;;;15.13;9.85;;;15.00;99.90;;;;;;5000047;28;20116;-78
2023/10/10 05:25:22;;;;;;;24.98;17.55;;;14.80;99.90;;;;;;4997915;28;20050;-78
2023/10/10 05:27:51;;;;;;;26.45;19.40;;;14.80;99.90;;;;;;5011511;28;20065;-79
2023/10/10 05:30:23;;;;;;;29.00;19.52;;;14.80;99.90;;;;;;5011559;28;20505;-79
2023/10/10 05:33:02;;;;;;;27.48;19.17;;;14.80;99.90;;;;;;4996206;28;20103;-78
2023/10/10 05:35:33;;;;;;;34.47;21.58;;;14.80;99.90;;;;;;4998953;28;20190;-78
2023/10/10 05:38:02;;;;;;;31.13;21.80;;;14.80;99.90;;;;;;5011412;28;20042;-78
2023/10/10 05:40:28;;;;;;;29.88;20.80;;;14.80;99.90;;;;;;4994640;28;20049;-79
2023/10/10 05:42:57;;;;;;;32.85;22.55;;;14.80;99.90;;;;;;5011015;28;20068;-79
2023/10/10 05:45:23;;;;;;;39.63;25.08;;;14.80;99.90;;;;;;5011383;28;20049;-79
2023/10/10 05:47:49;;;;;;;36.13;23.67;;;14.80;99.90;;;;;;4994625;28;20042;-78
2023/10/10 05:50:16;;;;;;;36.15;25.08;;;14.80;99.90;;;;;;5011607;28;20124;-78
2023/10/10 05:52:43;;;;;;;37.90;23.58;;;14.80;99.90;;;;;;5010295;28;20161;-78
2023/10/10 05:55:12;;;;;;;39.00;25.15;;;14.80;99.90;;;;;;5011436;28;20049;-78
2023/10/10 05:57:39;;;;;;;41.85;26.77;;;14.80;99.90;;;;;;5010763;28;20049;-79
2023/10/10 06:00:10;;;;;;;37.25;24.88;;;14.80;99.90;;;;;;5010860;28;20064;-79
2023/10/10 06:02:46;;;;;;;41.75;27.13;;;14.70;99.90;;;;;;5010824;28;20046;-78
2023/10/10 06:05:16;;;;;;;40.58;26.40;;;14.70;99.90;;;;;;4963296;28;20048;-78
2023/10/10 06:07:42;;;;;;;44.40;26.58;;;14.70;99.90;;;;;;5010557;28;20045;-79
2023/10/10 06:10:18;;;;;;;47.63;27.20;;;14.70;99.90;;;;;;5011690;28;20064;-77
2023/10/10 06:12:48;;;;;;;45.03;26.98;;;14.60;99.90;;;;;;4997513;28;20091;-78
2023/10/10 06:15:18;;;;;;;45.20;25.77;;;14.60;99.90;;;;;;5015108;28;20038;-79
2023/10/10 06:17:44;;;;;;;40.10;26.13;;;14.60;99.90;;;;;;5014628;28;20456;-79
2023/10/10 06:20:15;;;;;;;44.35;28.23;;;14.60;99.90;;;;;;5015276;28;20623;-79
2023/10/10 06:22:41;;;;;;;48.25;28.23;;;14.60;99.90;;;;;;4998726;28;20038;-78
2023/10/10 06:25:09;;;;;;;40.55;27.70;;;14.60;99.90;;;;;;4998764;28;20524;-79
2023/10/10 06:27:37;;;;;;;40.33;27.02;;;14.60;99.90;;;;;;5015348;28;20491;-79
2023/10/10 06:30:04;;;;;;;42.67;27.90;;;14.50;99.90;;;;;;4998777;28;20047;-78
2023/10/10 06:32:32;;;;;;;46.50;29.98;;;14.50;99.90;;;;;;5014704;28;20508;-78
2023/10/10 06:37:43;;;;;;;46.08;29.38;;;14.50;99.90;;;;;;5014308;28;20048;-79
2023/10/10 06:40:10;;;;;;;50.40;30.60;;;14.60;99.90;;;;;;4997936;28;20038;-78
2023/10/10 06:42:37;;;;;;;44.78;29.35;;;14.60;99.90;;;;;;5014230;28;20064;-79
2023/10/10 06:45:11;;;;;;;47.13;29.42;;;14.60;99.90;;;;;;4998291;28;20076;-79
2023/10/10 06:47:44;;;;;;;40.65;28.17;;;14.60;99.90;;;;;;5014228;28;20505;-79
2023/10/10 06:50:12;;;;;;;38.40;27.95;;;14.70;99.90;;;;;;5014368;28;20080;-79
2023/10/10 06:52:39;;;;;;;46.78;29.00;;;14.70;99.90;;;;;;5014160;28;20045;-79
2023/10/10 06:55:12;;;;;;;46.03;29.63;;;14.70;99.90;;;;;;5014620;28;20444;-79
2023/10/10 06:57:38;;;;;;;41.53;29.00;;;14.80;99.90;;;;;;4968909;28;20436;-79
2023/10/10 07:00:53;;;;;;;45.17;29.67;;;14.90;99.90;;;;;;5014066;28;20044;-77
2023/10/10 07:02:59;;;;;;;41.00;28.60;;;14.90;99.90;;;;;;4992849;28;20042;-79
2023/10/10 07:05:33;;;;;;;45.08;29.98;;;15.00;99.90;;;;;;5013847;28;20049;-78
2023/10/10 07:07:59;;;;;;;47.50;31.25;;;15.00;99.90;;;;;;5013844;28;20046;-79
2023/10/10 07:10:32;;;;;;;47.50;31.52;;;15.10;99.90;;;;;;4997458;28;20057;-79
2023/10/10 07:12:59;;;;;;;45.05;32.70;;;15.20;99.90;;;;;;5013917;28;20033;-79
2023/10/10 07:15:35;;;;;;;46.17;31.30;;;15.20;99.90;;;;;;5013899;28;20508;-79
2023/10/10 07:18:22;;;;;;;53.90;33.63;;;15.20;99.90;;;;;;4997309;28;20057;-78
2023/10/10 07:21:06;;;;;;;51.88;34.65;;;15.30;99.90;;;;;;5013800;28;20080;-78
2023/10/10 07:23:37;;;;;;;51.10;33.00;;;15.30;99.90;;;;;;5013775;28;20038;-78
2023/10/10 07:26:23;;;;;;;54.50;35.88;;;15.30;99.90;;;;;;5013879;28;20046;-78
2023/10/10 07:28:52;;;;;;;51.80;33.45;;;15.40;99.90;;;;;;5005840;28;20034;-78
2023/10/10 07:31:23;;;;;;;52.78;36.45;;;15.40;99.90;;;;;;4997893;28;20041;-78
2023/10/10 07:33:56;;;;;;;56.70;36.13;;;15.40;99.90;;;;;;5013537;28;20109;-77
2023/10/10 07:36:27;;;;;;;56.30;36.75;;;15.50;99.90;;;;;;5013518;28;20046;-78
2023/10/10 07:38:54;;;;;;;58.85;38.90;;;15.50;99.90;;;;;;4980680;28;20129;-78
2023/10/10 07:41:28;;;;;;;65.15;42.05;;;15.60;99.90;;;;;;5013298;28;20081;-77
2023/10/10 07:43:59;;;;;;;65.57;42.08;;;15.60;99.90;;;;;;4997169;28;20060;-78
2023/10/10 07:46:27;;;;;;;61.50;43.50;;;15.60;99.90;;;;;;5013283;28;20517;-78
2023/10/10 07:48:56;;;;;;;61.97;42.78;;;15.60;99.90;;;;;;4996675;28;20492;-77
2023/10/10 07:51:29;;;;;;;69.00;44.65;;;15.70;99.90;;;;;;5013254;28;20117;-78
2023/10/10 07:54:12;;;;;;;;;;;15.70;99.90;;;;;;5013912;28;20045;-78
2023/10/10 07:56:45;;;;;;;63.75;43.47;;;15.80;99.90;;;;;;4999393;28;19968;-78
2023/10/10 07:59:13;;;;;;;66.75;43.97;;;15.90;99.90;;;;;;5013273;28;20042;-78
2023/10/10 08:01:41;;;;;;;74.32;48.90;;;16.00;99.90;;;;;;5013172;28;20080;-78
2023/10/10 08:04:07;;;;;;;69.00;45.78;;;16.00;99.90;;;;;;4996916;28;20038;-79
2023/10/10 08:06:33;;;;;;;69.05;47.03;;;16.10;99.90;;;;;;4980601;28;20044;-77
2023/10/10 08:11:46;;;;;;;66.68;45.10;;;16.10;99.90;;;;;;4998682;28;20049;-79
2023/10/10 08:14:13;;;;;;;64.75;45.03;;;16.10;99.90;;;;;;5012632;28;20500;-78
2023/10/10 08:16:40;;;;;;;76.53;49.00;;;16.20;99.90;;;;;;5012966;28;20382;-78
2023/10/10 08:19:08;;;;;;;76.57;47.83;;;16.20;99.90;;;;;;5012317;28;20129;-78
2023/10/10 08:21:39;;;;;;;75.03;48.88;;;16.20;99.90;;;;;;5012883;28;20466;-77
2023/10/10 08:24:11;;;;;;;78.50;49.17;;;16.20;99.90;;;;;;5013070;28;20065;-78
2023/10/10 08:26:41;;;;;;;70.25;48.50;;;16.20;99.90;;;;;;4996469;28;20378;-78
2023/10/10 08:29:14;;;;;;;80.88;50.30;;;16.30;99.90;;;;;;4996215;28;20120;-78
2023/10/10 08:31:42;;;;;;;75.93;51.20;;;16.30;99.90;;;;;;5012495;28;20044;-78
2023/10/10 08:34:09;;;;;;;77.38;52.10;;;16.30;99.90;;;;;;4995701;28;20120;-78
2023/10/10 08:36:43;;;;;;;76.15;52.33;;;16.30;99.90;;;;;;5012539;28;20050;-78
2023/10/10 08:41:42;;;;;;;80.88;52.15;;;16.30;99.90;;;;;;4996553;28;20057;-78
2023/10/10 08:44:14;;;;;;;77.85;51.80;;;16.30;99.90;;;;;;4979852;28;20050;-78
2023/10/10 08:46:46;;;;;;;83.85;52.50;;;16.30;99.90;;;;;;4996201;28;20046;-78
2023/10/10 08:49:13;;;;;;;79.40;50.47;;;16.20;99.90;;;;;;4996422;28;20524;-78
2023/10/10 08:51:41;;;;;;;75.18;50.50;;;16.20;99.90;;;;;;4996135;28;20153;-77
2023/10/10 08:54:11;;;;;;;82.93;52.97;;;16.20;99.90;;;;;;5012135;28;20110;-78
2023/10/10 08:56:59;;;;;;;84.22;53.83;;;16.20;99.90;;;;;;5011845;28;20103;-78
2023/10/10 08:59:28;;;;;;;85.43;51.33;;;16.20;99.90;;;;;;5011694;28;20046;-78
2023/10/10 09:01:55;;;;;;;90.20;52.88;;;16.20;99.90;;;;;;5011949;28;20057;-77
2023/10/10 09:04:27;;;;;;;73.75;49.45;;;16.30;99.90;;;;;;4996052;28;20433;-79
2023/10/10 09:07:00;;;;;;;80.05;52.20;;;16.40;99.90;;;;;;5011832;28;20058;-78
2023/10/10 09:09:39;;;;;;;72.35;49.22;;;16.40;99.90;;;;;;5011770;28;20042;-78
2023/10/10 09:12:14;;;;;;;68.90;47.13;;;16.50;99.90;;;;;;4995341;28;20042;-77
2023/10/10 09:14:50;;;;;;;65.93;45.47;;;16.60;99.90;;;;;;5011905;28;20045;-80
2023/10/10 09:17:28;;;;;;;66.47;47.33;;;16.80;99.90;;;;;;5011775;28;20100;-79
2023/10/10 09:19:56;;;;;;;59.90;44.95;;;16.90;99.90;;;;;;4995165;28;20042;-78
2023/10/10 09:22:34;;;;;;;65.90;45.20;;;17.00;99.90;;;;;;5011755;28;20079;-79
2023/10/10 09:25:17;;;;;;;63.75;44.58;;;17.20;99.90;;;;;;5011526;28;20046;-78
2023/10/10 09:28:07;;;;;;;60.58;44.45;;;17.30;99.90;;;;;;4981250;28;20080;-78
2023/10/10 09:30:45;;;;;;;60.30;43.80;;;17.30;99.90;;;;;;5012895;28;20033;-79
2023/10/10 09:33:27;;;;;;;57.58;42.15;;;17.40;99.90;;;;;;5011073;28;20461;-78
2023/10/10 09:36:15;;;;;;;58.50;41.75;;;17.50;99.90;;;;;;4995289;28;20504;-78
2023/10/10 09:38:57;;;;;;;55.20;42.53;;;17.60;99.90;;;;;;5011489;28;20543;-78
2023/10/10 09:57:58;;;;;;;51.38;39.47;;;18.10;99.90;;;;;;5011102;28;20046;-77
2023/10/10 10:09:31;;;;;;;51.85;38.75;;;18.20;99.90;;;;;;5010348;28;20416;-77
2023/10/10 10:12:19;;;;;;;49.30;38.05;;;18.30;99.90;;;;;;5000626;28;20121;-78
2023/10/10 10:15:24;;;;;;;47.55;37.60;;;18.40;99.90;;;;;;5011220;28;20133;-77
2023/10/10 10:18:18;;;;;;;48.75;36.95;;;18.40;99.90;;;;;;5010799;28;20501;-78
2023/10/10 10:20:47;;;;;;;48.10;36.55;;;18.40;99.90;;;;;;5010741;28;20046;-77
2023/10/10 10:23:33;;;;;;;47.63;36.35;;;18.50;99.90;;;;;;4994920;28;20531;-77
2023/10/10 10:26:08;;;;;;;43.45;35.85;;;18.50;99.90;;;;;;5011075;28;20046;-77
2023/10/10 10:28:37;;;;;;;50.80;36.40;;;18.60;99.90;;;;;;4994431;28;20034;-77
2023/10/10 10:31:30;;;;;;;46.72;36.25;;;18.60;99.90;;;;;;5010700;28;20045;-78
2023/10/10 10:34:23;;;;;;;47.80;36.53;;;18.60;99.90;;;;;;5011083;28;20037;-78
2023/10/10 10:36:56;;;;;;;44.35;35.63;;;18.60;99.90;;;;;;5010919;28;20077;-77
2023/10/10 10:39:34;;;;;;;43.10;34.42;;;18.70;99.90;;;;;;4994413;28;20049;-78
2023/10/10 10:42:01;;;;;;;46.42;34.17;;;18.70;99.90;;;;;;4995969;28;20041;-77
2023/10/10 10:47:38;;;;;;;45.28;33.03;;;18.90;99.90;;;;;;4995473;28;20038;-78
2023/10/10 10:50:05;;;;;;;44.95;32.83;;;18.90;99.90;;;;;;4994474;28;20470;-78
2023/10/10 10:52:44;;;;;;;44.30;33.80;;;18.90;99.90;;;;;;4978112;28;20186;-77
2023/10/10 10:55:22;;;;;;;45.65;35.70;;;19.00;99.90;;;;;;5010930;28;20034;-77
2023/10/10 10:58:05;;;;;;;54.78;35.13;;;19.10;99.90;;;;;;4998769;28;20568;-76
2023/10/10 11:01:00;;;;;;;41.83;33.03;;;19.20;99.90;;;;;;4997766;28;20053;-77
2023/10/10 11:03:38;;;;;;;42.15;31.73;;;19.30;99.90;;;;;;5014357;28;20447;-76
2023/10/10 11:06:09;;;;;;;41.88;30.45;;;19.40;99.90;;;;;;4981573;28;20046;-77
2023/10/10 11:09:42;;;;;;;39.22;31.52;;;19.40;99.90;;;;;;4997709;28;20168;-77
2023/10/10 11:14:18;;;;;;;38.22;28.40;;;19.50;99.90;;;;;;5015222;28;20041;-76
2023/10/10 11:16:46;;;;;;;39.97;30.90;;;19.70;99.90;;;;;;4997555;28;20157;-76
2023/10/10 11:21:53;;;;;;;36.22;28.25;;;19.80;99.90;;;;;;4997274;28;20050;-76
2023/10/10 11:24:25;;;;;;;41.88;28.70;;;19.90;99.90;;;;;;5014052;28;20518;-77
2023/10/10 11:29:42;;;;;;;36.42;29.55;;;20.00;99.90;;;;;;5013673;28;20476;-76
2023/10/10 11:32:11;;;;;;;38.65;29.73;;;19.90;99.90;;;;;;5013894;28;20053;-75
2023/10/10 11:34:46;;;;;;;39.28;29.77;;;19.80;99.90;;;;;;4997759;28;20042;-76
2023/10/10 11:37:33;;;;;;;34.45;28.15;;;19.80;99.90;;;;;;5016814;28;20038;-76
2023/10/10 11:42:54;;;;;;;37.85;29.20;;;19.70;99.90;;;;;;5001816;28;20062;-75
2023/10/10 11:45:25;;;;;;;36.58;29.15;;;19.70;99.90;;;;;;5020067;28;20128;-76
2023/10/10 11:47:52;;;;;;;37.70;28.52;;;19.70;99.90;;;;;;4997901;28;20135;-74
2023/10/10 11:50:27;;;;;;;39.00;28.75;;;19.70;99.90;;;;;;4997221;28;20049;-75
2023/10/10 11:53:01;;;;;;;36.25;29.15;;;19.80;99.90;;;;;;4997001;28;20073;-75
2023/10/10 11:55:28;;;;;;;38.78;29.85;;;19.80;99.90;;;;;;4974396;28;20038;-75
2023/10/10 11:58:06;;;;;;;38.10;29.33;;;19.90;99.90;;;;;;5012778;28;20121;-75
2023/10/10 12:00:44;;;;;;;36.50;28.30;;;19.90;99.90;;;;;;5006725;28;20508;-76
2023/10/10 12:03:41;;;;;;;35.80;28.20;;;19.90;99.90;;;;;;5012994;28;20057;-76
2023/10/10 12:06:22;;;;;;;39.83;28.67;;;19.90;99.90;;;;;;5000721;28;20041;-76
2023/10/10 12:08:56;;;;;;;35.17;27.33;;;20.00;99.90;;;;;;4998239;28;20052;-76
2023/10/10 12:11:33;;;;;;;39.13;29.33;;;20.00;99.90;;;;;;5013824;28;20045;-75
2023/10/10 12:13:59;;;;;;;36.58;28.60;;;20.10;99.90;;;;;;5013160;28;20100;-75
2023/10/10 12:16:25;;;;;;;37.65;28.75;;;20.20;99.90;;;;;;4996858;28;20501;-75
2023/10/10 12:18:52;;;;;;;37.47;28.73;;;20.30;99.90;;;;;;5012732;28;20045;-76
2023/10/10 12:21:31;;;;;;;41.78;28.67;;;20.30;99.90;;;;;;5013032;28;20121;-75
2023/10/10 12:23:57;;;;;;;36.50;28.00;;;20.40;99.90;;;;;;4997071;28;20045;-76
2023/10/10 12:26:26;;;;;;;32.50;26.88;;;20.40;99.90;;;;;;5012526;28;20097;-77
2023/10/10 12:28:55;;;;;;;36.08;26.65;;;20.50;99.90;;;;;;5012886;28;20038;-77
2023/10/10 12:31:21;;;;;;;38.38;28.20;;;20.50;99.90;;;;;;5012455;28;20044;-76
2023/10/10 12:33:49;;;;;;;31.60;25.67;;;20.60;99.90;;;;;;4977213;28;20088;-76
2023/10/10 12:36:17;;;;;;;31.25;23.70;;;20.60;99.90;;;;;;4986233;28;20508;-76
2023/10/10 12:38:44;;;;;;;33.60;24.52;;;20.60;99.90;;;;;;5011678;28;20038;-76
2023/10/10 12:41:12;;;;;;;27.38;23.05;;;20.70;99.90;;;;;;4996068;28;20100;-77
2023/10/10 12:43:38;;;;;;;28.08;21.27;;;20.70;99.90;;;;;;4996138;28;20452;-77
2023/10/10 12:46:07;;;;;;;30.52;20.98;;;20.70;99.90;;;;;;5012119;28;20046;-76
2023/10/10 12:48:41;;;;;;;29.23;21.70;;;20.70;99.90;;;;;;5012285;28;20119;-76
2023/10/10 12:51:09;;;;;;;32.15;23.65;;;20.80;99.90;;;;;;5011752;28;20493;-76
2023/10/10 12:53:39;;;;;;;29.27;21.83;;;20.70;99.90;;;;;;5012322;28;20451;-76
2023/10/10 12:56:10;;;;;;;29.08;22.38;;;20.70;99.90;;;;;;5012272;28;20034;-76
2023/10/10 12:58:42;;;;;;;30.33;22.52;;;20.70;99.90;;;;;;5011961;28;20568;-75
2023/10/10 13:01:12;;;;;;;27.55;21.52;;;20.60;99.90;;;;;;4964947;28;20040;-75
2023/10/10 13:03:38;;;;;;;27.52;21.38;;;20.60;99.90;;;;;;5011890;28;20038;-76
2023/10/10 13:06:06;;;;;;;27.80;21.33;;;20.50;99.90;;;;;;4995725;28;20451;-77
2023/10/10 13:08:38;;;;;;;32.63;22.73;;;20.40;99.90;;;;;;4964124;28;20120;-76
2023/10/10 13:11:12;;;;;;;31.02;20.95;;;20.30;99.90;;;;;;5010988;28;20042;-76
2023/10/10 13:13:45;;;;;;;31.60;22.52;;;20.20;99.90;;;;;;5011494;28;20074;-76
2023/10/10 13:18:58;;;;;;;31.67;20.10;;;20.10;99.90;;;;;;4998185;28;20046;-76
2023/10/10 13:21:24;;;;;;;24.70;19.75;;;20.10;99.90;;;;;;5011856;28;20478;-76
2023/10/10 13:23:52;;;;;;;23.60;19.23;;;20.10;99.90;;;;;;4979347;28;20496;-77
2023/10/10 13:26:21;;;;;;;27.75;18.75;;;20.00;99.90;;;;;;4995073;28;20136;-76
2023/10/10 13:28:48;;;;;;;24.95;18.42;;;20.10;99.90;;;;;;5011507;28;20076;-76
2023/10/10 13:31:18;;;;;;;25.73;19.58;;;20.10;99.90;;;;;;5011553;28;20034;-76
2023/10/10 13:33:44;;;;;;;25.20;18.08;;;20.10;99.90;;;;;;5011473;28;20049;-76
2023/10/10 13:36:12;;;;;;;28.70;20.30;;;20.00;99.90;;;;;;5011780;28;20037;-77
2023/10/10 13:38:47;;;;;;;28.13;19.58;;;20.00;99.90;;;;;;5011158;28;20382;-76
2023/10/10 13:41:16;;;;;;;29.08;20.13;;;20.00;99.90;;;;;;4995023;28;20374;-76
2023/10/10 13:43:44;;;;;;;25.25;18.25;;;19.90;99.90;;;;;;4995182;28;20099;-76
2023/10/10 13:46:09;;;;;;;25.55;19.25;;;19.90;99.90;;;;;;4994314;28;20042;-76
2023/10/10 13:48:38;;;;;;;23.58;18.00;;;19.90;99.90;;;;;;5011346;28;20044;-76
2023/10/10 13:51:05;;;;;;;28.35;18.25;;;19.90;99.90;;;;;;4994586;28;20045;-76
2023/10/10 13:53:32;;;;;;;24.35;18.50;;;19.90;99.90;;;;;;5011119;28;20037;-76
2023/10/10 13:56:00;;;;;;;25.80;19.33;;;19.90;99.90;;;;;;4994797;28;20046;-76
2023/10/10 13:58:26;;;;;;;24.75;18.58;;;19.90;99.90;;;;;;5011257;28;20125;-77
2023/10/10 14:00:52;;;;;;;23.75;17.60;;;19.90;99.90;;;;;;5011287;28;20177;-76
2023/10/10 14:03:35;;;;;;;26.63;16.98;;;19.90;99.90;;;;;;5011054;28;20507;-77
2023/10/10 14:06:00;;;;;;;;;;;19.90;99.90;;;;;;4995117;28;20054;-76
2023/10/10 14:08:27;;;;;;;24.45;17.35;;;20.00;99.90;;;;;;4995134;28;19917;-76
2023/10/10 14:10:54;;;;;;;22.20;17.40;;;20.00;99.90;;;;;;5010871;28;20046;-76
2023/10/10 14:13:20;;;;;;;21.38;16.88;;;20.00;99.90;;;;;;5010988;28;20057;-76
2023/10/10 14:16:01;;;;;;;21.45;16.73;;;20.00;99.90;;;;;;5011296;28;20417;-76
2023/10/10 14:18:31;;;;;;;23.45;17.00;;;20.00;99.90;;;;;;4982859;28;20089;-77
2023/10/10 14:21:07;;;;;;;23.05;15.35;;;19.90;99.90;;;;;;5010973;28;20046;-76
2023/10/10 14:23:35;;;;;;;24.75;16.88;;;19.80;99.90;;;;;;4985293;28;20049;-77
2023/10/10 14:26:14;;;;;;;24.13;15.55;;;19.80;99.90;;;;;;5011073;28;20178;-77
2023/10/10 14:28:50;;;;;;;22.45;16.33;;;19.80;99.90;;;;;;4979774;28;20034;-76
2023/10/10 14:31:21;;;;;;;21.67;15.82;;;19.80;99.90;;;;;;5011956;28;20046;-76
2023/10/10 14:33:47;;;;;;;20.90;15.02;;;19.70;99.90;;;;;;5001746;28;20034;-76
2023/10/10 14:36:13;;;;;;;21.27;14.73;;;19.70;99.90;;;;;;5004827;28;20118;-76
2023/10/10 14:38:46;;;;;;;20.90;13.98;;;19.70;99.90;;;;;;5013424;28;20054;-76
2023/10/10 14:41:20;;;;;;;21.48;14.68;;;19.60;99.90;;;;;;5014510;28;20056;-76
2023/10/10 14:43:51;;;;;;;20.48;14.85;;;19.70;99.90;;;;;;4998490;28;20125;-76
2023/10/10 14:46:31;;;;;;;18.17;13.70;;;19.70;99.90;;;;;;5014670;28;20046;-76
2023/10/10 14:49:06;;;;;;;19.05;14.52;;;19.70;99.90;;;;;;5014337;28;20054;-76
2023/10/10 14:51:38;;;;;;;22.95;14.50;;;19.70;99.90;;;;;;5014561;28;20192;-76
2023/10/10 14:54:11;;;;;;;25.45;15.25;;;19.60;99.90;;;;;;4998197;28;20064;-77
2023/10/10 14:56:39;;;;;;;21.83;14.30;;;19.70;99.90;;;;;;5014283;28;20493;-77
2023/10/10 14:59:06;;;;;;;19.98;14.10;;;19.70;99.90;;;;;;5013902;28;20030;-77
2023/10/10 15:01:35;;;;;;;15.50;13.13;;;19.60;99.90;;;;;;5014482;28;20034;-76
2023/10/10 15:04:06;;;;;;;18.98;14.10;;;19.60;99.90;;;;;;4997679;28;20040;-76
2023/10/10 15:06:33;;;;;;;17.85;13.90;;;19.50;99.90;;;;;;5014064;28;20046;-76
2023/10/10 15:09:00;;;;;;;19.10;14.05;;;19.50;99.90;;;;;;4997804;28;20076;-76
2023/10/10 15:11:29;;;;;;;17.42;13.88;;;19.40;99.90;;;;;;4997470;28;20034;-75
2023/10/10 15:13:56;;;;;;;22.08;14.52;;;19.40;99.90;;;;;;4998538;28;20393;-75
2023/10/10 15:16:23;;;;;;;20.05;13.75;;;19.40;99.90;;;;;;4997475;28;20042;-76
2023/10/10 15:18:53;;;;;;;18.77;12.68;;;19.40;99.90;;;;;;4997921;28;20038;-76
2023/10/10 15:21:20;;;;;;;18.95;13.32;;;19.30;99.90;;;;;;5013744;28;20055;-75
2023/10/10 15:23:46;;;;;;;17.25;13.10;;;19.30;99.90;;;;;;4965524;28;20038;-76
2023/10/10 15:26:20;;;;;;;18.50;12.65;;;19.30;99.90;;;;;;5013706;28;20085;-75
2023/10/10 15:28:46;;;;;;;20.50;12.57;;;19.20;99.90;;;;;;5014002;28;20519;-75
2023/10/10 15:31:13;;;;;;;17.02;12.40;;;19.20;99.90;;;;;;5013624;28;20042;-76
2023/10/10 15:33:48;;;;;;;20.63;12.57;;;19.20;99.90;;;;;;4983807;28;20378;-75
2023/10/10 15:36:16;;;;;;;17.02;12.48;;;19.10;99.90;;;;;;4994791;28;20039;-76
2023/10/10 15:38:43;;;;;;;16.02;11.65;;;19.10;99.90;;;;;;5012975;28;20377;-76
2023/10/10 15:41:20;;;;;;;17.60;13.38;;;19.00;99.90;;;;;;5013295;28;20519;-76
2023/10/10 15:43:47;;;;;;;22.40;13.43;;;19.00;99.90;;;;;;5013065;28;20385;-76
2023/10/10 15:46:14;;;;;;;15.25;11.70;;;19.00;99.90;;;;;;5010093;28;20042;-75
2023/10/10 15:48:42;;;;;;;17.05;12.55;;;19.00;99.90;;;;;;4990716;28;20037;-75
2023/10/10 15:51:08;;;;;;;21.38;14.18;;;19.00;99.90;;;;;;5013358;28;20044;-76